Time;durP1;ratioP1;P1;durP2;ratioP2;P2;SDS_P1;SDS_P2;PMS_P1;PMS_P2;Temp;Humidity;BMP_temperature;BMP_pressure;BME280_temperature;BME280_humidity;BME280_pressure;Samples;Min_cycle;Max_cycle;Signal;HPM_P1;HPM_P2
2022/06/15 00:01:00;;;;;;;;;;;;;;;33.18;21.45;101042.22;4417732;32;20382;-69
2022/06/15 00:03:27;;;;;;;;;;;;;;;33.39;21.38;101048.56;4416130;32;20343;-67
2022/06/15 00:06:03;;;;;;;;;;;;;;;33.62;21.07;101040.47;4417867;32;20311;-69
2022/06/15 00:08:29;;;;;;;;;;;;;;;33.60;20.96;101051.97;4418873;32;19957;-69
2022/06/15 00:10:54;;;;;;;;;;;;;;;33.67;20.86;101048.19;4419783;32;19997;-69
2022/06/15 00:13:19;;;;;;;;;;;;;;;33.61;20.91;101045.53;4419953;32;20583;-69
2022/06/15 00:15:47;;;;;;;;;;;;;;;33.72;20.63;101047.22;4418848;32;20218;-69
2022/06/15 00:18:13;;;;;;;;;;;;;;;33.42;20.93;101044.47;4417537;32;20012;-69
2022/06/15 00:20:39;;;;;;;;;;;;;;;33.73;20.65;101045.81;4419141;32;19953;-69
2022/06/15 00:23:04;;;;;;;;;;;;;;;33.69;20.68;101046.25;4420646;32;20023;-69
2022/06/15 00:25:30;;;;;;;;;;;;;;;33.69;20.66;101039.63;4419374;32;19954;-69
2022/06/15 00:27:55;;;;;;;;;;;;;;;33.54;20.77;101042.66;4417894;32;20310;-69
2022/06/15 00:30:21;;;;;;;;;;;;;;;33.70;20.67;101029.50;4419304;32;19961;-69
2022/06/15 00:32:47;;;;;;;;;;;;;;;33.69;20.64;101043.34;4417619;32;19957;-69
2022/06/15 00:35:31;;;;;;;;;;;;;;;33.65;20.70;101033.44;4420632;32;20007;-69
2022/06/15 00:37:56;;;;;;;;;;;;;;;33.66;20.72;101038.69;4418034;32;20341;-69
2022/06/15 00:40:22;;;;;;;;;;;;;;;33.43;20.89;101029.28;4420057;32;20093;-69
2022/06/15 00:42:48;;;;;;;;;;;;;;;33.33;20.94;101028.34;4420586;32;20007;-69
2022/06/15 00:45:13;;;;;;;;;;;;;;;33.28;21.11;101028.59;4416493;32;19992;-69
2022/06/15 00:47:43;;;;;;;;;;;;;;;33.28;21.08;101032.25;4419720;32;19949;-69
2022/06/15 00:50:12;;;;;;;;;;;;;;;33.29;21.10;101030.13;4419658;32;20417;-69
2022/06/15 00:52:41;;;;;;;;;;;;;;;33.32;21.08;101038.47;4420515;32;19965;-69
2022/06/15 00:55:11;;;;;;;;;;;;;;;33.50;20.84;101034.28;4423845;32;20381;-69
2022/06/15 00:57:38;;;;;;;;;;;;;;;33.46;20.85;101022.28;4423056;32;19957;-69
2022/06/15 01:00:05;;;;;;;;;;;;;;;33.30;21.02;101029.53;4422100;32;19949;-69
2022/06/15 01:02:36;;;;;;;;;;;;;;;33.13;21.14;101026.50;4410124;32;19953;-69
2022/06/15 01:05:05;;;;;;;;;;;;;;;32.99;21.31;101019.38;4423829;32;19972;-69
2022/06/15 01:28:56;;;;;;;;;;;;;;;32.37;22.12;101019.34;3950552;32;15723343;-69
2022/06/15 01:31:41;;;;;;;;;;;;;;;32.37;22.12;101019.34;4424760;32;19984;-69
2022/06/15 01:34:26;;;;;;;;;;;;;;;31.94;22.51;101016.63;4423264;32;19937;-69
2022/06/15 01:39:47;;;;;;;;;;;;;;;31.98;22.53;101014.88;3950317;32;15723602;-69
2022/06/15 01:44:58;;;;;;;;;;;;;;;31.89;22.64;101012.56;3949460;32;15725244;-69
2022/06/15 01:47:26;;;;;;;;;;;;;;;31.89;22.64;101012.56;4433133;32;19977;-69
2022/06/15 01:49:57;;;;;;;;;;;;;;;31.26;23.12;101016.47;4435007;32;19989;-69
2022/06/15 01:52:27;;;;;;;;;;;;;;;31.38;23.07;101008.97;4431571;32;20391;-69
2022/06/15 01:54:59;;;;;;;;;;;;;;;31.15;23.28;101019.75;4434172;32;20374;-69
2022/06/15 01:57:26;;;;;;;;;;;;;;;31.33;23.11;101017.88;4430295;32;20020;-69
2022/06/15 01:59:56;;;;;;;;;;;;;;;31.22;23.37;101018.19;4433546;32;19949;-69
2022/06/15 02:05:18;;;;;;;;;;;;;;;31.55;23.07;101012.12;3950081;32;15724503;-69
2022/06/15 02:13:06;;;;;;;;;;;;;;;31.34;23.39;101011.47;3949833;32;15725369;-69
2022/06/15 02:15:34;;;;;;;;;;;;;;;31.34;23.39;101011.47;4421592;32;20283;-69
2022/06/15 02:18:02;;;;;;;;;;;;;;;31.03;23.56;101009.81;4432044;32;19992;-69
2022/06/15 02:20:29;;;;;;;;;;;;;;;31.06;23.64;101004.97;4431704;32;19971;-68
2022/06/15 02:22:57;;;;;;;;;;;;;;;30.82;23.94;101014.94;4431785;32;20030;-69
2022/06/15 02:25:24;;;;;;;;;;;;;;;30.84;23.81;101013.00;4433078;32;20004;-68
2022/06/15 02:27:50;;;;;;;;;;;;;;;30.79;23.85;101013.19;4433200;32;20181;-69
2022/06/15 02:30:18;;;;;;;;;;;;;;;30.70;24.00;101007.88;4432817;32;20005;-69
2022/06/15 02:32:46;;;;;;;;;;;;;;;30.65;23.91;101005.94;4431648;32;20750;-69
2022/06/15 02:35:11;;;;;;;;;;;;;;;30.40;24.22;100999.00;4433500;32;19949;-69
2022/06/15 02:37:37;;;;;;;;;;;;;;;30.56;24.07;100995.59;4432664;32;19961;-69
2022/06/15 02:40:03;;;;;;;;;;;;;;;30.45;24.12;101004.66;4430698;32;19953;-68
2022/06/15 02:45:07;;;;;;;;;;;;;;;30.98;23.63;101004.94;3950871;32;15723585;-69
2022/06/15 02:47:35;;;;;;;;;;;;;;;30.98;23.63;101004.94;4427914;32;19993;-68
2022/06/15 02:50:02;;;;;;;;;;;;;;;30.61;23.89;101002.59;4415321;32;19989;-68
2022/06/15 02:52:32;;;;;;;;;;;;;;;30.70;23.77;101002.06;4425521;32;20008;-68
2022/06/15 02:54:58;;;;;;;;;;;;;;;30.81;23.54;101002.53;4428462;32;19964;-68
2022/06/15 02:57:24;;;;;;;;;;;;;;;31.07;23.33;100998.56;4425679;32;19961;-68
2022/06/15 02:59:50;;;;;;;;;;;;;;;30.79;23.60;100990.72;4413235;32;19953;-68
2022/06/15 03:02:17;;;;;;;;;;;;;;;30.71;23.68;101000.72;4411618;32;20012;-69
2022/06/15 03:04:44;;;;;;;;;;;;;;;30.72;23.79;101002.28;4426593;32;19954;-69
2022/06/15 03:07:11;;;;;;;;;;;;;;;30.60;23.79;100992.34;4428522;32;19988;-69
2022/06/15 03:09:37;;;;;;;;;;;;;;;30.14;24.41;100993.37;4426744;32;20005;-68
2022/06/15 03:12:03;;;;;;;;;;;;;;;30.29;24.28;100994.28;4424319;32;20016;-68
2022/06/15 03:14:29;;;;;;;;;;;;;;;30.43;24.05;100986.25;4413275;32;20446;-69
2022/06/15 03:16:54;;;;;;;;;;;;;;;30.25;24.09;100993.84;4424816;32;20021;-69
2022/06/15 03:19:20;;;;;;;;;;;;;;;30.46;23.86;100982.16;4425915;32;19957;-68
2022/06/15 03:21:45;;;;;;;;;;;;;;;30.24;23.99;100986.50;4424866;32;19979;-68
2022/06/15 03:24:11;;;;;;;;;;;;;;;30.25;24.04;100988.06;4427411;32;20035;-68
2022/06/15 03:26:36;;;;;;;;;;;;;;;30.25;24.00;100984.38;4426113;32;19957;-68
2022/06/15 03:29:02;;;;;;;;;;;;;;;30.35;23.94;100986.19;4429667;32;20392;-69
2022/06/15 03:31:27;;;;;;;;;;;;;;;30.30;23.92;100987.13;4427162;32;20339;-69
2022/06/15 03:33:53;;;;;;;;;;;;;;;30.22;24.07;100973.91;4423622;32;19988;-68
2022/06/15 03:36:19;;;;;;;;;;;;;;;30.25;24.06;100975.69;4423461;32;19997;-68
2022/06/15 03:38:45;;;;;;;;;;;;;;;30.26;24.02;100977.22;4426957;32;19969;-67
2022/06/15 03:41:11;;;;;;;;;;;;;;;30.06;24.28;100978.03;4427982;32;19991;-68
2022/06/15 03:43:36;;;;;;;;;;;;;;;29.84;24.50;100978.63;4424216;32;19997;-69
2022/06/15 03:46:01;;;;;;;;;;;;;;;29.99;24.32;100976.63;4426177;32;20150;-69
2022/06/15 03:48:27;;;;;;;;;;;;;;;29.98;24.04;100977.97;4425081;32;19945;-68
2022/06/15 03:50:52;;;;;;;;;;;;;;;29.88;24.49;100973.25;4426453;32;20003;-68
2022/06/15 03:53:18;;;;;;;;;;;;;;;30.00;24.40;100980.31;4425591;32;20475;-68
2022/06/15 03:55:44;;;;;;;;;;;;;;;29.95;24.26;100982.03;4419245;32;19981;-68
2022/06/15 03:58:12;;;;;;;;;;;;;;;29.86;24.37;100978.84;4417171;32;20464;-70
2022/06/15 04:00:37;;;;;;;;;;;;;;;29.80;24.59;100984.00;4415320;32;20373;-67
2022/06/15 04:03:03;;;;;;;;;;;;;;;29.72;24.66;100977.34;4414245;32;20009;-68
2022/06/15 04:05:33;;;;;;;;;;;;;;;29.66;24.71;100976.75;4417899;32;20019;-68
2022/06/15 04:10:44;;;;;;;;;;;;;;;29.91;24.44;100984.47;4415401;32;20379;-67
2022/06/15 04:13:10;;;;;;;;;;;;;;;30.02;24.39;100983.41;4413648;32;19953;-67
2022/06/15 04:15:36;;;;;;;;;;;;;;;29.94;24.41;100994.19;4413947;32;20476;-67
2022/06/15 04:18:02;;;;;;;;;;;;;;;30.09;24.38;100985.56;4415586;32;19965;-67
2022/06/15 04:20:36;;;;;;;;;;;;;;;30.08;24.10;100975.31;4414957;32;19996;-67
2022/06/15 04:23:04;;;;;;;;;;;;;;;30.10;24.37;100975.53;4414571;32;20023;-67
2022/06/15 04:25:31;;;;;;;;;;;;;;;30.11;24.13;100974.97;4415485;32;20005;-68
2022/06/15 04:27:57;;;;;;;;;;;;;;;30.25;24.11;100978.59;4415034;32;20025;-68
2022/06/15 04:30:23;;;;;;;;;;;;;;;30.20;24.30;100983.19;4415797;32;20012;-68
2022/06/15 04:32:49;;;;;;;;;;;;;;;30.29;24.24;100987.69;4413651;32;20327;-67
2022/06/15 04:35:15;;;;;;;;;;;;;;;30.17;24.26;100990.13;4417663;32;19994;-67
2022/06/15 04:37:40;;;;;;;;;;;;;;;30.15;24.29;100989.87;4414391;32;19991;-67
2022/06/15 04:40:06;;;;;;;;;;;;;;;30.28;24.09;100984.00;4417667;32;20008;-67
2022/06/15 04:42:32;;;;;;;;;;;;;;;30.09;24.40;100980.56;4398844;32;20339;-67
2022/06/15 04:44:58;;;;;;;;;;;;;;;30.07;24.41;100986.16;4413237;32;20480;-67
2022/06/15 04:47:24;;;;;;;;;;;;;;;30.17;24.34;100992.22;4416831;32;19984;-67
2022/06/15 04:49:50;;;;;;;;;;;;;;;30.29;24.22;100990.59;4415328;32;19973;-67
2022/06/15 04:52:16;;;;;;;;;;;;;;;30.27;24.31;100993.28;4416313;32;19958;-67
2022/06/15 04:54:42;;;;;;;;;;;;;;;30.50;23.95;100997.88;4413502;32;20583;-67
2022/06/15 04:57:07;;;;;;;;;;;;;;;30.26;24.26;100998.34;4413211;32;20295;-67
2022/06/15 04:59:33;;;;;;;;;;;;;;;30.25;24.26;100990.19;4415703;32;19993;-67
2022/06/15 05:01:59;;;;;;;;;;;;;;;30.36;24.09;100992.75;4413680;32;20008;-67
2022/06/15 05:04:25;;;;;;;;;;;;;;;30.62;23.83;101002.03;4412148;32;20024;-67
2022/06/15 05:06:51;;;;;;;;;;;;;;;30.65;23.63;101000.88;4413230;32;20340;-69
2022/06/15 05:09:17;;;;;;;;;;;;;;;30.67;23.77;101004.00;4403268;32;19953;-69
2022/06/15 05:11:43;;;;;;;;;;;;;;;30.97;23.37;101002.59;4415151;32;19959;-69
2022/06/15 05:14:09;;;;;;;;;;;;;;;30.79;23.46;100998.66;4413432;32;20022;-69
2022/06/15 05:16:36;;;;;;;;;;;;;;;30.86;23.45;101000.81;4413550;32;20103;-69
2022/06/15 05:19:02;;;;;;;;;;;;;;;31.19;23.24;100999.78;4414951;32;20288;-69
2022/06/15 05:21:28;;;;;;;;;;;;;;;31.06;23.23;101002.06;4411109;32;19997;-69
2022/06/15 05:23:54;;;;;;;;;;;;;;;31.17;23.33;101004.62;4413304;32;20019;-69
2022/06/15 05:26:24;;;;;;;;;;;;;;;31.37;23.11;101004.50;4412976;32;19968;-69
2022/06/15 05:28:50;;;;;;;;;;;;;;;30.93;23.54;101008.81;4415292;32;20031;-68
2022/06/15 05:31:18;;;;;;;;;;;;;;;30.86;23.69;101006.63;4414950;32;19956;-68
2022/06/15 05:33:44;;;;;;;;;;;;;;;31.05;23.75;101010.00;4412818;32;19989;-69
2022/06/15 05:36:10;;;;;;;;;;;;;;;30.98;23.72;101013.66;4412944;32;20019;-68
2022/06/15 05:38:36;;;;;;;;;;;;;;;31.06;23.60;101017.38;4413165;32;19989;-68
2022/06/15 05:41:02;;;;;;;;;;;;;;;31.52;23.28;101015.38;4412396;32;20687;-68
2022/06/15 05:43:28;;;;;;;;;;;;;;;31.66;23.10;101022.59;4416033;32;20327;-68
2022/06/15 05:45:54;;;;;;;;;;;;;;;31.63;22.92;101020.84;4412316;32;19965;-68
2022/06/15 05:48:19;;;;;;;;;;;;;;;31.72;23.10;101026.09;4412486;32;20000;-68
2022/06/15 05:50:45;;;;;;;;;;;;;;;31.69;23.01;101019.28;4414115;32;19954;-69
2022/06/15 05:53:11;;;;;;;;;;;;;;;31.42;23.58;101018.09;4410208;32;20615;-69
2022/06/15 05:55:36;;;;;;;;;;;;;;;31.67;23.19;101018.31;4415429;32;19949;-69
2022/06/15 05:58:02;;;;;;;;;;;;;;;31.84;23.22;101030.22;4414451;32;20008;-67
2022/06/15 06:00:28;;;;;;;;;;;;;;;31.81;23.61;101022.63;4412378;32;20335;-69
2022/06/15 06:02:53;;;;;;;;;;;;;;;32.02;23.34;101014.47;4412565;32;20007;-68
2022/06/15 06:05:19;;;;;;;;;;;;;;;31.98;23.65;101028.66;4409732;32;20438;-68
2022/06/15 06:07:44;;;;;;;;;;;;;;;32.15;23.56;101012.16;4410887;32;19988;-68
2022/06/15 06:10:10;;;;;;;;;;;;;;;32.23;23.44;101012.12;4414499;32;19968;-68
2022/06/15 06:12:36;;;;;;;;;;;;;;;32.03;23.58;101028.47;4414246;32;19996;-68
2022/06/15 06:15:02;;;;;;;;;;;;;;;32.06;23.60;101017.81;4412427;32;19961;-69
2022/06/15 06:17:28;;;;;;;;;;;;;;;32.22;23.65;101016.44;4410831;32;20798;-69
2022/06/15 06:19:53;;;;;;;;;;;;;;;32.43;23.08;101017.78;4412053;32;20051;-69
2022/06/15 06:22:19;;;;;;;;;;;;;;;32.60;22.73;101017.94;4413447;32;19993;-69
2022/06/15 06:24:44;;;;;;;;;;;;;;;32.70;22.44;101012.25;4413600;32;19990;-69
2022/06/15 06:27:11;;;;;;;;;;;;;;;32.59;22.52;101013.47;4415235;32;20347;-69
2022/06/15 06:29:37;;;;;;;;;;;;;;;32.72;22.36;101020.41;4410507;32;20000;-69
2022/06/15 06:32:02;;;;;;;;;;;;;;;32.79;22.08;101017.47;4407694;32;19971;-68
2022/06/15 06:34:29;;;;;;;;;;;;;;;32.90;22.05;101022.12;4412041;32;20377;-68
2022/06/15 06:36:55;;;;;;;;;;;;;;;32.92;21.91;101025.25;4407627;32;19961;-69
2022/06/15 06:39:24;;;;;;;;;;;;;;;33.05;21.97;101022.06;4405684;32;19992;-69
2022/06/15 06:41:50;;;;;;;;;;;;;;;33.00;22.05;101023.84;4405747;32;20685;-69
2022/06/15 06:44:16;;;;;;;;;;;;;;;33.00;22.00;101015.09;4403671;32;19997;-68
2022/06/15 06:46:43;;;;;;;;;;;;;;;33.36;21.55;101012.59;4409139;32;19996;-68
2022/06/15 06:49:09;;;;;;;;;;;;;;;33.55;21.53;101012.87;4403390;32;20058;-68
2022/06/15 06:51:36;;;;;;;;;;;;;;;33.75;21.31;101025.59;4399836;32;20346;-69
2022/06/15 06:54:02;;;;;;;;;;;;;;;33.63;21.42;101028.19;4398400;32;19962;-69
2022/06/15 06:56:28;;;;;;;;;;;;;;;33.90;21.32;101029.19;4407127;32;20005;-69
2022/06/15 06:58:54;;;;;;;;;;;;;;;34.09;21.27;101031.56;4403586;32;20320;-69
2022/06/15 07:01:20;;;;;;;;;;;;;;;34.15;21.26;101029.19;4399027;32;20475;-69
2022/06/15 07:03:45;;;;;;;;;;;;;;;34.14;21.32;101024.69;4399661;32;20621;-69
2022/06/15 07:06:11;;;;;;;;;;;;;;;34.38;21.13;101033.47;4401593;32;20508;-69
2022/06/15 07:08:38;;;;;;;;;;;;;;;34.32;21.05;101041.66;4393776;32;19953;-69
2022/06/15 07:11:13;;;;;;;;;;;;;;;34.03;21.46;101028.09;4403041;32;20378;-68
2022/06/15 07:13:39;;;;;;;;;;;;;;;34.41;21.21;101042.41;4403248;32;19981;-69
2022/06/15 07:16:05;;;;;;;;;;;;;;;34.79;20.91;101046.47;4400183;32;19976;-69
2022/06/15 07:18:31;;;;;;;;;;;;;;;34.57;21.14;101047.47;4403476;32;20442;-69
2022/06/15 07:21:00;;;;;;;;;;;;;;;34.67;21.07;101036.66;4399199;32;19976;-69
2022/06/15 07:23:26;;;;;;;;;;;;;;;34.38;21.40;101047.28;4397331;32;20270;-68
2022/06/15 07:25:52;;;;;;;;;;;;;;;34.90;20.93;101043.03;4400568;32;20408;-68
2022/06/15 07:28:18;;;;;;;;;;;;;;;34.73;21.10;101051.03;4401243;32;20097;-68
2022/06/15 07:30:46;;;;;;;;;;;;;;;35.10;20.94;101046.91;4403148;32;19953;-68
2022/06/15 07:33:11;;;;;;;;;;;;;;;35.01;20.93;101039.59;4401487;32;20017;-69
2022/06/15 07:35:38;;;;;;;;;;;;;;;35.03;21.02;101041.94;4404321;32;19989;-69
2022/06/15 07:38:04;;;;;;;;;;;;;;;34.36;21.50;101030.34;4406453;32;20826;-69
2022/06/15 07:40:32;;;;;;;;;;;;;;;34.50;21.49;101036.66;4404389;32;20332;-69
2022/06/15 07:42:58;;;;;;;;;;;;;;;35.18;20.84;101042.50;4402913;32;20016;-69
2022/06/15 07:45:24;;;;;;;;;;;;;;;34.18;21.93;101039.66;4401973;32;20709;-69
2022/06/15 07:50:36;;;;;;;;;;;;;;;35.12;21.23;101050.00;4407609;32;19977;-68
2022/06/15 07:53:03;;;;;;;;;;;;;;;35.52;20.69;101047.53;4408459;32;19997;-70
2022/06/15 07:55:30;;;;;;;;;;;;;;;36.04;20.22;101045.94;4405262;32;19977;-69
2022/06/15 07:57:56;;;;;;;;;;;;;;;36.70;19.49;101047.50;4405728;32;20095;-70
2022/06/15 08:00:23;;;;;;;;;;;;;;;36.60;19.58;101049.66;4406759;32;20005;-69
2022/06/15 08:02:49;;;;;;;;;;;;;;;36.76;19.40;101045.06;4404565;32;20367;-70
2022/06/15 08:05:16;;;;;;;;;;;;;;;36.86;19.37;101040.75;4400314;32;19949;-68
2022/06/15 08:07:44;;;;;;;;;;;;;;;37.17;19.17;101044.59;4403171;32;20001;-68
2022/06/15 08:10:12;;;;;;;;;;;;;;;37.71;18.57;101054.59;4406290;32;20438;-68
2022/06/15 08:12:38;;;;;;;;;;;;;;;37.41;18.75;101046.44;4404882;32;20044;-68
2022/06/15 08:15:05;;;;;;;;;;;;;;;37.55;18.67;101047.47;4397841;32;20001;-69
2022/06/15 08:17:34;;;;;;;;;;;;;;;37.77;18.59;101055.00;4399374;32;19972;-70
2022/06/15 08:20:05;;;;;;;;;;;;;;;37.94;18.34;101056.97;4404838;32;20331;-69
2022/06/15 08:22:31;;;;;;;;;;;;;;;38.29;18.10;101049.25;4405810;32;20312;-69
2022/06/15 08:24:57;;;;;;;;;;;;;;;37.63;18.52;101050.25;4402354;32;20392;-68
2022/06/15 08:27:22;;;;;;;;;;;;;;;37.71;18.49;101051.66;4406618;32;20011;-67
2022/06/15 08:29:49;;;;;;;;;;;;;;;37.85;18.43;101049.75;4405838;32;20308;-68
2022/06/15 08:32:16;;;;;;;;;;;;;;;38.14;18.10;101043.75;4407722;32;20223;-68
2022/06/15 08:34:44;;;;;;;;;;;;;;;38.30;18.02;101044.91;4403844;32;20000;-68
2022/06/15 08:37:11;;;;;;;;;;;;;;;38.22;18.09;101041.38;4404360;32;20572;-68
2022/06/15 08:39:37;;;;;;;;;;;;;;;37.24;19.04;101037.81;4406574;32;19995;-68
2022/06/15 08:55:22;;;;;;;;;;;;;;;37.80;18.90;101039.06;3929117;32;15724582;-68
2022/06/15 08:57:57;;;;;;;;;;;;;;;37.80;18.90;101039.06;4409413;32;19997;-69
2022/06/15 09:03:10;;;;;;;;;;;;;;;39.56;17.44;101044.06;3945160;32;15725349;-68
2022/06/15 09:08:24;;;;;;;;;;;;;;;40.07;16.88;101042.22;3943058;32;15725445;-69
2022/06/15 09:18:49;;;;;;;;;;;;;;;41.06;16.07;101038.06;3942775;32;15726314;-67
2022/06/15 09:21:18;;;;;;;;;;;;;;;41.06;16.07;101038.06;4413414;32;20578;-67
2022/06/15 09:23:57;;;;;;;;;;;;;;;40.36;16.49;101040.41;4413924;32;19995;-67
2022/06/15 09:29:10;;;;;;;;;;;;;;;41.85;15.44;101043.44;3947369;32;15729462;-69
2022/06/15 09:31:41;;;;;;;;;;;;;;;41.85;15.44;101043.44;4420189;32;20359;-69
2022/06/15 09:34:09;;;;;;;;;;;;;;;41.74;15.35;101048.00;4416481;32;19993;-69
2022/06/15 09:36:38;;;;;;;;;;;;;;;41.97;15.29;101050.06;4418281;32;20029;-69
2022/06/15 09:39:05;;;;;;;;;;;;;;;42.21;14.90;101043.25;4417685;32;19990;-70
2022/06/15 09:41:37;;;;;;;;;;;;;;;42.77;14.67;101043.41;4418692;32;20391;-69
2022/06/15 09:57:23;;;;;;;;;;;;;;;45.39;12.53;101045.50;3953779;31;15718074;-69
2022/06/15 09:59:49;;;;;;;;;;;;;;;45.39;12.53;101045.50;4424607;32;20005;-69
2022/06/15 10:02:27;;;;;;;;;;;;;;;44.78;12.73;101038.38;4426142;32;20429;-68
2022/06/15 10:04:52;;;;;;;;;;;;;;;44.67;13.01;101024.53;4430868;32;20334;-70
2022/06/15 10:07:27;;;;;;;;;;;;;;;43.90;13.34;101032.09;4425486;32;19971;-69
2022/06/15 10:09:55;;;;;;;;;;;;;;;44.37;13.12;101029.09;4428918;32;20009;-70
2022/06/15 10:13:07;;;;;;;;;;;;;;;45.14;12.40;101031.03;4428721;32;20025;-70
2022/06/15 10:15:42;;;;;;;;;;;;;;;44.44;12.74;101036.81;4431484;32;20706;-70
2022/06/15 10:18:27;;;;;;;;;;;;;;;43.92;13.27;101022.53;4430491;32;20406;-69
2022/06/15 10:20:55;;;;;;;;;;;;;;;43.70;13.57;101025.16;4425759;32;20039;-72
2022/06/15 10:23:23;;;;;;;;;;;;;;;43.82;13.40;101022.78;4429740;32;20458;-70
2022/06/15 10:25:51;;;;;;;;;;;;;;;43.77;13.54;101024.00;4431232;32;20459;-68
2022/06/15 10:28:21;;;;;;;;;;;;;;;44.39;13.17;101026.97;4429684;32;20021;-69
2022/06/15 10:30:50;;;;;;;;;;;;;;;45.00;12.36;101027.50;4430989;32;19997;-69
2022/06/15 10:33:19;;;;;;;;;;;;;;;45.83;11.93;101022.75;4429688;32;19992;-71
2022/06/15 10:35:51;;;;;;;;;;;;;;;46.38;11.34;101021.19;4427797;32;20013;-71
2022/06/15 10:38:18;;;;;;;;;;;;;;;46.86;11.36;101016.25;4428763;32;20032;-70
2022/06/15 10:40:55;;;;;;;;;;;;;;;47.33;11.06;101022.31;4431504;32;20012;-69
2022/06/15 10:43:25;;;;;;;;;;;;;;;47.24;10.87;101019.78;4429038;32;19973;-71
2022/06/15 10:48:47;;;;;;;;;;;;;;;46.75;11.31;101025.50;3944625;32;15728644;-69
2022/06/15 10:51:15;;;;;;;;;;;;;;;46.75;11.31;101025.50;4421355;32;20005;-69
2022/06/15 10:53:43;;;;;;;;;;;;;;;45.96;11.63;101027.72;4421640;32;20310;-67
2022/06/15 11:02:10;;;;;;;;;;;;;;;44.20;12.68;101014.94;4422228;32;20508;-67
2022/06/15 11:04:49;;;;;;;;;;;;;;;44.67;12.43;101013.44;4419307;32;20007;-67
2022/06/15 11:07:23;;;;;;;;;;;;;;;44.98;12.06;101012.50;4423775;32;20027;-67
2022/06/15 11:12:30;;;;;;;;;;;;;;;44.92;11.82;101015.22;3946119;32;15723544;-68
2022/06/15 11:14:59;;;;;;;;;;;;;;;44.92;11.82;101015.22;4421469;32;20008;-68
2022/06/15 11:20:21;;;;;;;;;;;;;;;43.99;11.52;101013.25;4418382;32;20603;-68
2022/06/15 11:22:48;;;;;;;;;;;;;;;44.16;11.79;101015.50;4422656;32;20005;-68
2022/06/15 11:25:16;;;;;;;;;;;;;;;44.30;11.73;101010.25;4423261;32;20319;-68
2022/06/15 11:27:44;;;;;;;;;;;;;;;44.23;12.01;101019.53;4424029;32;19953;-68
2022/06/15 11:32:51;;;;;;;;;;;;;;;44.28;12.25;101013.13;3935388;32;15723635;-68
2022/06/15 11:35:21;;;;;;;;;;;;;;;44.28;12.25;101013.13;4408388;32;19969;-68
2022/06/15 11:43:02;;;;;;;;;;;;;;;46.83;10.50;101016.84;3946293;32;15722526;-68
2022/06/15 11:45:34;;;;;;;;;;;;;;;46.83;10.50;101016.84;4416120;32;20020;-68
2022/06/15 11:50:45;;;;;;;;;;;;;;;47.51;9.94;101005.03;3944329;32;15738496;-68
2022/06/15 11:58:30;;;;;;;;;;;;;;;47.45;9.54;101010.06;3944349;32;15723370;-67
2022/06/15 12:06:39;;;;;;;;;;;;;;;46.85;9.84;101011.75;3941977;32;15723346;-67
2022/06/15 12:09:24;;;;;;;;;;;;;;;46.85;9.84;101011.75;4429792;32;19965;-68
2022/06/15 12:12:41;;;;;;;;;;;;;;;46.73;9.86;101004.56;4429257;32;19976;-68
2022/06/15 12:17:57;;;;;;;;;;;;;;;45.57;10.83;100986.78;3945476;32;15728628;-67
2022/06/15 12:20:42;;;;;;;;;;;;;;;45.57;10.83;100986.78;4420860;32;20245;-69
2022/06/15 12:23:27;;;;;;;;;;;;;;;45.24;10.98;100986.88;4421841;32;19989;-69
2022/06/15 12:26:04;;;;;;;;;;;;;;;44.94;11.20;100993.75;4422906;32;19965;-69
2022/06/15 12:33:56;;;;;;;;;;;;;;;45.84;10.70;100991.56;3945139;32;15724648;-69
2022/06/15 12:39:05;;;;;;;;;;;;;;;46.87;9.87;100993.19;3948188;32;15722377;-68
2022/06/15 12:44:22;;;;;;;;;;;;;;;46.53;10.10;100993.47;4418211;32;19997;-69
2022/06/15 12:46:51;;;;;;;;;;;;;;;46.61;10.01;101001.16;4417735;32;20008;-68
2022/06/15 12:49:23;;;;;;;;;;;;;;;46.42;10.13;100985.63;4417457;32;20036;-69
2022/06/15 12:54:34;;;;;;;;;;;;;;;47.35;9.74;101000.75;3943971;32;15722579;-69
2022/06/15 13:02:21;;;;;;;;;;;;;;;48.72;8.92;100990.72;3944763;32;15724428;-70
2022/06/15 13:07:26;;;;;;;;;;;;;;;49.14;8.67;101004.56;3947637;32;15721582;-71
2022/06/15 13:12:47;;;;;;;;;;;;;;;48.94;8.73;101004.03;3944425;32;15722851;-69
2022/06/15 13:15:32;;;;;;;;;;;;;;;48.94;8.73;101004.03;4423118;32;20634;-70
2022/06/15 13:23:28;;;;;;;;;;;;;;;48.96;8.77;100992.16;3961591;32;15722369;-71
2022/06/15 13:25:55;;;;;;;;;;;;;;;47.43;9.62;101001.81;4440141;32;20426;-68
2022/06/15 13:28:23;;;;;;;;;;;;;;;46.88;9.83;101000.66;4437557;32;20213;-71
2022/06/15 13:33:43;;;;;;;;;;;;;;;46.59;10.21;101001.84;3941864;32;15726292;-70
2022/06/15 13:38:49;;;;;;;;;;;;;;;46.06;10.71;101001.31;3946025;32;15728588;-72
2022/06/15 13:41:21;;;;;;;;;;;;;;;46.06;10.71;101001.31;4420462;32;20021;-71
2022/06/15 13:49:14;;;;;;;;;;;;;;;44.48;11.36;100995.44;3943181;32;15723567;-71
2022/06/15 13:51:43;;;;;;;;;;;;;;;44.48;11.36;100995.44;4418128;32;20398;-70
2022/06/15 13:57:19;;;;;;;;;;;;;;;43.55;12.32;100993.28;3944126;32;15723563;-68
2022/06/15 13:59:55;;;;;;;;;;;;;;;43.55;12.32;100993.28;4417423;32;20051;-70
2022/06/15 14:02:28;;;;;;;;;;;;;;;42.47;13.21;101003.28;4420470;32;20012;-70
2022/06/15 14:05:05;;;;;;;;;;;;;;;42.09;13.29;101007.13;4421064;32;20523;-69
2022/06/15 14:07:51;;;;;;;;;;;;;;;42.22;13.04;101012.28;4417626;32;20490;-70
2022/06/15 14:15:56;;;;;;;;;;;;;;;41.90;13.60;101018.62;3941535;32;15728532;-72
2022/06/15 14:21:09;;;;;;;;;;;;;;;41.67;13.80;101022.47;3939687;32;15726353;-71
2022/06/15 14:23:36;;;;;;;;;;;;;;;41.67;13.80;101022.47;4418625;32;19988;-71
2022/06/15 14:26:03;;;;;;;;;;;;;;;40.92;14.36;101013.63;4416907;32;20164;-71
2022/06/15 14:28:30;;;;;;;;;;;;;;;41.14;14.34;101023.81;4416489;32;19995;-70
2022/06/15 14:31:00;;;;;;;;;;;;;;;41.36;14.09;101014.06;4418857;32;20064;-71
2022/06/15 14:33:27;;;;;;;;;;;;;;;41.22;14.18;101018.38;4422839;32;20290;-71
2022/06/15 14:36:12;;;;;;;;;;;;;;;41.74;13.93;101018.44;4417077;32;20485;-71
2022/06/15 14:38:39;;;;;;;;;;;;;;;41.34;14.31;101016.13;4416332;32;20298;-71
2022/06/15 14:41:15;;;;;;;;;;;;;;;40.99;14.49;101021.41;4423222;32;20000;-70
2022/06/15 14:43:40;;;;;;;;;;;;;;;40.97;14.44;101021.28;4422762;32;20373;-71
2022/06/15 14:46:06;;;;;;;;;;;;;;;41.46;14.14;101016.81;4418714;32;19995;-71
2022/06/15 14:48:33;;;;;;;;;;;;;;;41.27;14.02;101026.06;4423728;32;20009;-70
2022/06/15 14:56:29;;;;;;;;;;;;;;;41.34;13.99;101025.75;3945821;32;15723542;-71
2022/06/15 15:01:35;;;;;;;;;;;;;;;41.12;14.33;101021.50;3944650;32;15724486;-70
2022/06/15 15:04:10;;;;;;;;;;;;;;;41.12;14.33;101021.50;4423645;32;19965;-70
2022/06/15 15:06:36;;;;;;;;;;;;;;;41.13;14.18;101028.16;4425486;32;19949;-71
2022/06/15 15:09:09;;;;;;;;;;;;;;;40.81;14.02;101020.31;4423663;32;20361;-71
2022/06/15 15:11:37;;;;;;;;;;;;;;;41.28;13.71;101013.59;4412498;32;19949;-70
2022/06/15 15:14:04;;;;;;;;;;;;;;;41.17;13.84;101013.66;4425602;32;19969;-70
2022/06/15 15:16:32;;;;;;;;;;;;;;;41.39;13.78;101009.03;4429072;32;19965;-71
2022/06/15 15:18:59;;;;;;;;;;;;;;;41.74;13.64;101017.69;4424882;32;20344;-71
2022/06/15 15:24:03;;;;;;;;;;;;;;;43.34;13.57;100998.88;3945098;32;15724625;-71
2022/06/15 15:34:57;;;;;;;;;;;;;;;44.07;12.86;100992.06;4443745;32;20400;-71
2022/06/15 15:37:40;;;;;;;;;;;;;;;44.10;12.87;101005.53;4445510;32;19984;-71
2022/06/15 15:40:09;;;;;;;;;;;;;;;44.83;12.37;101001.47;4444318;32;20015;-71
2022/06/15 15:42:35;;;;;;;;;;;;;;;45.22;11.91;101004.66;4447005;32;20005;-72
2022/06/15 15:45:01;;;;;;;;;;;;;;;45.62;11.68;101003.34;4446028;32;20419;-71
2022/06/15 15:47:29;;;;;;;;;;;;;;;45.51;11.71;100998.41;4445641;32;20020;-71
2022/06/15 15:49:56;;;;;;;;;;;;;;;46.03;11.50;101005.66;4444265;32;20643;-71
2022/06/15 15:52:21;;;;;;;;;;;;;;;45.31;11.90;101000.56;4447545;32;19973;-71
2022/06/15 15:54:47;;;;;;;;;;;;;;;45.66;11.52;101000.50;4449182;32;19971;-71